createdAt,value
2022-11-20T00:01:08.152Z,2.70
2022-11-20T00:03:35.308Z,2.70
2022-11-20T00:06:04.197Z,2.70
2022-11-20T00:08:31.175Z,2.70
2022-11-20T00:10:58.340Z,2.70
2022-11-20T00:13:25.399Z,2.70
2022-11-20T00:15:59.603Z,2.60
2022-11-20T00:18:27.590Z,2.60
2022-11-20T00:20:55.254Z,2.60
2022-11-20T00:23:22.268Z,2.60
2022-11-20T00:25:49.324Z,2.60
2022-11-20T00:28:16.270Z,2.60
2022-11-20T00:30:43.256Z,2.60
2022-11-20T00:33:10.234Z,2.60
2022-11-20T00:35:37.126Z,2.60
2022-11-20T00:38:04.117Z,2.60
2022-11-20T00:40:31.138Z,2.50
2022-11-20T00:42:58.057Z,2.50
2022-11-20T00:45:25.044Z,2.40
2022-11-20T00:47:51.975Z,2.40
2022-11-20T00:50:19.180Z,2.40
2022-11-20T00:52:46.191Z,2.30
2022-11-20T00:55:13.201Z,2.30
2022-11-20T00:57:40.215Z,2.30
2022-11-20T01:00:07.919Z,2.30
2022-11-20T01:02:34.914Z,2.30
2022-11-20T01:05:01.893Z,2.30
2022-11-20T01:07:28.895Z,2.30
2022-11-20T01:09:55.890Z,2.20
2022-11-20T01:12:22.873Z,2.20
2022-11-20T01:14:49.886Z,2.20
2022-11-20T01:17:16.811Z,2.20
2022-11-20T01:19:43.717Z,2.10
2022-11-20T01:22:10.624Z,2.20
2022-11-20T01:24:37.488Z,2.20
2022-11-20T01:27:04.408Z,2.20
2022-11-20T01:29:31.533Z,2.20
2022-11-20T01:31:58.512Z,2.30
2022-11-20T01:34:26.164Z,2.30
2022-11-20T01:36:54.616Z,2.30
2022-11-20T01:39:24.779Z,2.40
2022-11-20T01:42:11.664Z,2.40
2022-11-20T01:44:52.880Z,2.40
2022-11-20T01:47:35.094Z,2.40
2022-11-20T01:50:25.908Z,2.40
2022-11-20T01:53:05.003Z,2.40
2022-11-20T01:55:41.139Z,2.30
2022-11-20T01:58:08.464Z,2.30
2022-11-20T02:00:36.169Z,2.30
2022-11-20T02:03:08.352Z,2.30
2022-11-20T02:05:37.987Z,2.40
2022-11-20T02:08:06.887Z,2.30
2022-11-20T02:10:35.384Z,2.30
2022-11-20T02:13:20.922Z,2.30
2022-11-20T02:15:48.570Z,2.30
2022-11-20T02:18:18.616Z,2.30
2022-11-20T02:20:53.825Z,2.30
2022-11-20T02:23:52.782Z,2.30
2022-11-20T02:26:22.705Z,2.30
2022-11-20T02:28:50.099Z,2.30
2022-11-20T02:31:17.698Z,2.30
2022-11-20T02:33:44.666Z,2.40
2022-11-20T02:36:16.388Z,2.40
2022-11-20T02:38:45.108Z,2.40
2022-11-20T02:41:12.159Z,2.40
2022-11-20T02:43:39.097Z,2.40
2022-11-20T02:46:08.609Z,2.40
2022-11-20T02:48:35.913Z,2.40
2022-11-20T02:51:03.297Z,2.40
2022-11-20T02:53:30.273Z,2.40
2022-11-20T02:55:57.511Z,2.40
2022-11-20T02:58:24.509Z,2.40
2022-11-20T03:00:51.617Z,2.40
2022-11-20T03:03:18.763Z,2.40
2022-11-20T03:05:45.687Z,2.40
2022-11-20T03:08:12.661Z,2.40
2022-11-20T03:10:39.663Z,2.40
2022-11-20T03:13:06.693Z,2.40
2022-11-20T03:15:33.753Z,2.40
2022-11-20T03:18:00.853Z,2.50
2022-11-20T03:20:27.810Z,2.50
2022-11-20T03:22:56.206Z,2.50
2022-11-20T03:25:23.814Z,2.50
2022-11-20T03:27:50.793Z,2.50
2022-11-20T03:30:17.853Z,2.40
2022-11-20T03:32:44.766Z,2.50
2022-11-20T03:35:11.787Z,2.50
2022-11-20T03:37:38.813Z,2.50
2022-11-20T03:40:06.649Z,2.50
2022-11-20T03:42:46.212Z,2.50
2022-11-20T03:45:18.045Z,2.50
2022-11-20T03:47:46.631Z,2.40
2022-11-20T03:50:15.543Z,2.40
2022-11-20T03:52:42.580Z,2.40
2022-11-20T03:55:10.291Z,2.40
2022-11-20T03:57:37.271Z,2.40
2022-11-20T04:00:05.896Z,2.40
2022-11-20T04:02:32.960Z,2.40
2022-11-20T04:04:59.976Z,2.40
2022-11-20T04:07:27.045Z,2.40
2022-11-20T04:09:54.030Z,2.40
2022-11-20T04:12:21.018Z,2.40
2022-11-20T04:14:47.993Z,2.40
2022-11-20T04:17:14.982Z,2.30
2022-11-20T04:19:41.958Z,2.30
2022-11-20T04:22:09.638Z,2.40
2022-11-20T04:24:36.625Z,2.40
2022-11-20T04:27:03.580Z,2.40
2022-11-20T04:29:30.537Z,2.40
2022-11-20T04:31:57.522Z,2.40
2022-11-20T04:34:24.530Z,2.50
2022-11-20T04:36:51.502Z,2.50
2022-11-20T04:39:18.886Z,2.40
2022-11-20T04:41:46.297Z,2.40
2022-11-20T04:44:13.347Z,2.30
2022-11-20T04:46:42.294Z,2.30
2022-11-20T04:49:09.823Z,2.10
2022-11-20T04:51:37.052Z,2.10
2022-11-20T04:54:04.343Z,2.10
2022-11-20T04:56:31.391Z,2.00
2022-11-20T04:59:02.580Z,2.00
2022-11-20T05:01:29.980Z,1.90
2022-11-20T05:03:57.088Z,1.90
2022-11-20T05:06:26.357Z,1.90
2022-11-20T05:08:53.342Z,1.80
2022-11-20T05:11:22.291Z,1.80
2022-11-20T05:13:50.618Z,1.70
2022-11-20T05:16:20.827Z,1.70
2022-11-20T05:18:48.707Z,1.60
2022-11-20T05:21:16.490Z,1.70
2022-11-20T05:23:44.994Z,1.60
2022-11-20T05:26:25.307Z,1.60
2022-11-20T05:28:53.594Z,1.70
2022-11-20T05:31:28.141Z,1.60
2022-11-20T05:33:57.177Z,1.60
2022-11-20T05:36:24.363Z,1.60
2022-11-20T05:38:52.334Z,1.60
2022-11-20T05:41:22.386Z,1.60
2022-11-20T05:43:51.012Z,1.60
2022-11-20T05:46:27.695Z,1.60
2022-11-20T05:48:56.727Z,1.60
2022-11-20T05:51:23.771Z,1.50
2022-11-20T05:53:50.861Z,1.60
2022-11-20T05:56:20.912Z,1.60
2022-11-20T05:58:48.659Z,1.50
2022-11-20T06:01:26.772Z,1.50
2022-11-20T06:03:55.297Z,1.50
2022-11-20T06:06:23.116Z,1.50
2022-11-20T06:08:50.204Z,1.50
2022-11-20T06:11:18.418Z,1.50
2022-11-20T06:13:46.826Z,1.60
2022-11-20T06:16:17.326Z,1.70
2022-11-20T06:18:44.360Z,1.70
2022-11-20T06:21:17.125Z,1.70
2022-11-20T06:23:46.284Z,1.60
2022-11-20T06:26:16.366Z,1.60
2022-11-20T06:28:43.416Z,1.60
2022-11-20T06:31:13.465Z,1.60
2022-11-20T06:33:40.671Z,1.70
2022-11-20T06:36:10.839Z,1.80
2022-11-20T06:38:39.348Z,1.80
2022-11-20T06:41:13.301Z,1.80
2022-11-20T06:43:40.573Z,1.80
2022-11-20T06:46:07.570Z,1.80
2022-11-20T06:48:34.607Z,1.80
2022-11-20T06:51:07.851Z,1.80
2022-11-20T06:53:36.030Z,1.90
2022-11-20T06:56:03.647Z,1.90
2022-11-20T06:58:32.670Z,1.90
2022-11-20T07:01:01.007Z,2.00
2022-11-20T07:03:28.318Z,2.00
2022-11-20T07:05:59.800Z,2.00
2022-11-20T07:08:26.935Z,2.10
2022-11-20T07:10:54.362Z,2.10
2022-11-20T07:13:21.363Z,2.20
2022-11-20T07:15:48.305Z,2.20
2022-11-20T07:18:15.260Z,2.20
2022-11-20T07:20:42.397Z,2.20
2022-11-20T07:23:09.369Z,2.30
2022-11-20T07:25:37.217Z,2.30
2022-11-20T07:28:04.803Z,2.30
2022-11-20T07:30:32.183Z,2.30
2022-11-20T07:32:59.285Z,2.40
2022-11-20T07:35:26.375Z,2.40
2022-11-20T07:37:53.369Z,2.40
2022-11-20T07:40:21.029Z,2.50
2022-11-20T07:42:56.242Z,2.50
2022-11-20T07:45:24.832Z,2.50
2022-11-20T07:47:52.265Z,2.50
2022-11-20T07:50:20.426Z,2.50
2022-11-20T07:52:48.145Z,2.50
2022-11-20T07:55:15.838Z,2.50
2022-11-20T07:57:42.924Z,2.50
2022-11-20T08:00:12.053Z,2.50
2022-11-20T08:02:42.585Z,2.50
2022-11-20T08:05:11.129Z,2.50
2022-11-20T08:07:43.367Z,2.60
2022-11-20T08:10:13.488Z,2.70
2022-11-20T08:13:07.544Z,2.80
2022-11-20T08:15:35.018Z,2.80
2022-11-20T08:20:54.048Z,2.90
2022-11-20T08:23:21.099Z,2.90
2022-11-20T08:25:51.036Z,2.90
2022-11-20T08:28:21.142Z,2.90
2022-11-20T08:30:49.168Z,2.90
2022-11-20T08:33:16.221Z,3.00
2022-11-20T08:35:44.027Z,3.00
2022-11-20T08:38:11.076Z,3.10
2022-11-20T08:40:38.008Z,3.10
2022-11-20T08:43:05.537Z,3.10
2022-11-20T08:45:35.068Z,3.20
2022-11-20T08:48:05.473Z,3.30
2022-11-20T08:50:34.184Z,3.30
2022-11-20T08:53:07.516Z,3.30
2022-11-20T08:55:36.732Z,3.30
2022-11-20T08:58:07.909Z,3.30
2022-11-20T09:00:35.700Z,3.30
2022-11-20T09:03:03.177Z,3.30
2022-11-20T09:05:30.832Z,3.30
2022-11-20T09:07:58.658Z,3.40
2022-11-20T09:10:26.778Z,3.40
2022-11-20T09:12:56.384Z,3.40
2022-11-20T09:15:24.221Z,3.40
2022-11-20T09:17:58.451Z,3.40
2022-11-20T09:20:26.937Z,3.40
2022-11-20T09:22:53.876Z,3.50
2022-11-20T09:25:20.894Z,3.50
2022-11-20T09:27:48.168Z,3.60
2022-11-20T09:30:16.199Z,3.60
2022-11-20T09:32:44.183Z,3.70
2022-11-20T09:35:11.918Z,3.80
2022-11-20T09:37:39.170Z,3.80
2022-11-20T09:40:07.039Z,3.80
2022-11-20T09:42:38.687Z,3.90
2022-11-20T09:45:33.208Z,3.90
2022-11-20T09:48:22.554Z,3.80
2022-11-20T09:51:17.452Z,3.80
2022-11-20T09:54:09.962Z,3.80
2022-11-20T09:56:42.222Z,3.90
2022-11-20T09:59:23.507Z,4.00
2022-11-20T10:01:51.596Z,4.10
2022-11-20T10:04:21.774Z,4.20
2022-11-20T10:07:31.992Z,4.20
2022-11-20T10:10:00.588Z,4.30
2022-11-20T10:12:46.015Z,4.30
2022-11-20T10:15:39.559Z,4.40
2022-11-20T10:18:28.636Z,4.50
2022-11-20T10:21:10.823Z,4.50
2022-11-20T10:24:12.778Z,4.50
2022-11-20T10:26:39.677Z,4.50
2022-11-20T10:29:12.651Z,4.50
2022-11-20T10:31:43.254Z,4.50
2022-11-20T10:34:26.048Z,4.50
2022-11-20T10:37:25.096Z,4.50
2022-11-20T10:40:00.048Z,4.60
2022-11-20T10:42:48.346Z,4.60
2022-11-20T10:45:20.818Z,4.70
2022-11-20T10:47:47.966Z,4.70
2022-11-20T10:50:22.421Z,4.80
2022-11-20T10:53:03.768Z,4.80
2022-11-20T10:55:55.162Z,4.70
2022-11-20T10:58:51.315Z,4.70
2022-11-20T11:01:24.561Z,4.70
2022-11-20T11:03:53.746Z,4.70
2022-11-20T11:06:29.590Z,4.70
2022-11-20T11:09:00.190Z,4.70
2022-11-20T11:11:31.269Z,4.70
2022-11-20T11:14:08.182Z,4.70
2022-11-20T11:16:35.498Z,4.80
2022-11-20T11:19:14.710Z,4.80
2022-11-20T11:21:55.592Z,4.90
2022-11-20T11:24:42.281Z,4.90
2022-11-20T11:27:18.969Z,4.90
2022-11-20T11:29:47.200Z,5.00
2022-11-20T11:32:17.013Z,5.00
2022-11-20T11:34:44.464Z,5.00
2022-11-20T11:37:18.687Z,5.00
2022-11-20T11:39:55.046Z,5.10
2022-11-20T11:42:31.618Z,5.10
2022-11-20T11:45:07.157Z,5.20
2022-11-20T11:47:37.316Z,5.20
2022-11-20T11:50:10.387Z,5.30
2022-11-20T11:52:59.568Z,5.30
2022-11-20T11:55:49.045Z,5.40
2022-11-20T11:58:34.342Z,5.40
2022-11-20T12:01:16.345Z,5.40
2022-11-20T12:04:12.985Z,5.40
2022-11-20T12:06:43.873Z,5.50
2022-11-20T12:09:13.220Z,5.50
2022-11-20T12:11:40.260Z,5.50
2022-11-20T12:14:35.639Z,5.60
2022-11-20T12:17:08.905Z,5.60
2022-11-20T12:19:36.489Z,5.70
2022-11-20T12:22:47.053Z,5.70
2022-11-20T12:25:30.954Z,5.90
2022-11-20T12:28:20.715Z,6.00
2022-11-20T12:31:09.993Z,6.00
2022-11-20T12:33:37.332Z,6.00
2022-11-20T12:36:26.497Z,5.90
2022-11-20T12:39:10.026Z,5.80
2022-11-20T12:42:23.028Z,5.80
2022-11-20T12:45:11.311Z,5.90
2022-11-20T12:47:52.968Z,5.90
2022-11-20T12:50:32.568Z,5.90
2022-11-20T12:53:23.952Z,6.00
2022-11-20T12:55:55.371Z,6.00
2022-11-20T12:58:34.303Z,6.00
2022-11-20T13:01:07.102Z,6.00
2022-11-20T13:03:51.104Z,6.00
2022-11-20T13:06:20.435Z,6.00
2022-11-20T13:08:59.204Z,6.10
2022-11-20T13:11:42.689Z,6.10
2022-11-20T13:14:42.571Z,6.10
2022-11-20T13:17:28.419Z,6.10
2022-11-20T13:19:59.919Z,6.10
2022-11-20T13:22:44.215Z,6.00
2022-11-20T13:25:24.039Z,6.10
2022-11-20T13:27:51.856Z,6.10
2022-11-20T13:30:22.366Z,6.10
2022-11-20T13:33:22.688Z,6.10
2022-11-20T13:36:09.342Z,6.10
2022-11-20T13:38:50.720Z,6.20
2022-11-20T13:41:39.217Z,6.10
2022-11-20T13:44:32.565Z,6.10
2022-11-20T13:47:00.276Z,6.10
2022-11-20T13:49:45.145Z,6.00
2022-11-20T13:52:35.570Z,5.90
2022-11-20T13:55:21.314Z,5.90
2022-11-20T13:57:55.008Z,5.90
2022-11-20T14:00:25.878Z,5.80
2022-11-20T14:03:08.610Z,5.80
2022-11-20T14:05:40.814Z,5.80
2022-11-20T14:08:15.680Z,5.80
2022-11-20T14:10:43.670Z,5.80
2022-11-20T14:13:22.210Z,5.90
2022-11-20T14:15:58.080Z,5.90
2022-11-20T14:18:28.785Z,6.00
2022-11-20T14:20:56.261Z,6.00
2022-11-20T14:23:30.514Z,6.10
2022-11-20T14:25:58.958Z,6.10
2022-11-20T14:28:31.949Z,6.10
2022-11-20T14:30:59.884Z,6.00
2022-11-20T14:33:29.074Z,5.90
2022-11-20T14:35:59.539Z,5.80
2022-11-20T14:38:30.606Z,5.80
2022-11-20T14:41:09.292Z,5.70
2022-11-20T14:43:39.231Z,5.60
2022-11-20T14:46:11.192Z,5.60
2022-11-20T14:49:11.885Z,5.60
2022-11-20T14:51:48.188Z,5.60
2022-11-20T14:54:23.380Z,5.60
2022-11-20T14:57:03.015Z,5.60
2022-11-20T14:59:36.102Z,5.60
2022-11-20T15:02:10.470Z,5.50
2022-11-20T15:04:52.992Z,5.50
2022-11-20T15:07:35.462Z,5.40
2022-11-20T15:10:13.471Z,5.40
2022-11-20T15:13:09.768Z,5.40
2022-11-20T15:15:50.402Z,5.30
2022-11-20T15:18:22.312Z,5.20
2022-11-20T15:20:50.630Z,5.20
2022-11-20T15:23:21.276Z,5.10
2022-11-20T15:25:50.728Z,5.10
2022-11-20T15:28:30.779Z,5.10
2022-11-20T15:30:58.190Z,5.10
2022-11-20T15:33:25.983Z,5.00
2022-11-20T15:35:55.544Z,5.00
2022-11-20T15:38:23.560Z,5.00
2022-11-20T15:40:52.465Z,4.90
2022-11-20T15:43:20.404Z,4.90
2022-11-20T15:45:53.345Z,4.90
2022-11-20T15:48:22.711Z,4.90
2022-11-20T15:50:59.359Z,4.90
2022-11-20T15:53:27.109Z,4.90
2022-11-20T15:55:55.108Z,4.80
2022-11-20T15:58:24.507Z,4.80
2022-11-20T16:00:52.636Z,4.80
2022-11-20T16:03:20.937Z,4.80
2022-11-20T16:05:48.562Z,4.80
2022-11-20T16:08:16.326Z,4.80
2022-11-20T16:10:44.204Z,4.90
2022-11-20T16:13:37.887Z,4.90
2022-11-20T16:16:12.358Z,4.90
2022-11-20T16:18:40.266Z,4.90
2022-11-20T16:21:14.882Z,4.90
2022-11-20T16:23:44.063Z,4.90
2022-11-20T16:26:17.530Z,4.90
2022-11-20T16:28:46.473Z,4.90
2022-11-20T16:31:17.649Z,4.90
2022-11-20T16:33:51.859Z,4.90
2022-11-20T16:36:21.608Z,4.80
2022-11-20T16:38:54.793Z,4.80
2022-11-20T16:41:23.246Z,4.80
2022-11-20T16:43:53.541Z,4.80
2022-11-20T16:46:24.416Z,4.80
2022-11-20T16:49:01.430Z,4.80
2022-11-20T16:51:31.403Z,4.70
2022-11-20T16:54:03.242Z,4.70
2022-11-20T16:56:33.677Z,4.70
2022-11-20T16:59:03.381Z,4.70
2022-11-20T17:01:32.590Z,4.70
2022-11-20T17:04:06.700Z,4.70
2022-11-20T17:06:41.234Z,4.80
2022-11-20T17:09:10.031Z,4.80
2022-11-20T17:11:38.311Z,4.80
2022-11-20T17:14:07.666Z,4.90
2022-11-20T17:16:36.437Z,4.90
2022-11-20T17:19:05.977Z,4.90
2022-11-20T17:21:39.437Z,4.90
2022-11-20T17:24:10.623Z,5.00
2022-11-20T17:26:40.232Z,4.90
2022-11-20T17:29:12.585Z,5.00
2022-11-20T17:31:40.963Z,4.90
2022-11-20T17:34:11.740Z,4.90
2022-11-20T17:36:45.182Z,5.00
2022-11-20T17:39:16.262Z,5.00
2022-11-20T17:41:44.114Z,5.00
2022-11-20T17:44:13.180Z,5.00
2022-11-20T17:46:41.704Z,5.00
2022-11-20T17:49:09.181Z,5.00
2022-11-20T17:51:37.267Z,5.00
2022-11-20T17:54:08.610Z,5.00
2022-11-20T17:56:55.251Z,5.00
2022-11-20T17:59:24.942Z,5.00
2022-11-20T18:01:52.682Z,5.00
2022-11-20T18:04:25.355Z,5.10
2022-11-20T18:06:53.613Z,5.10
2022-11-20T18:09:21.223Z,5.10
2022-11-20T18:11:48.540Z,5.10
2022-11-20T18:14:29.119Z,5.10
2022-11-20T18:17:03.745Z,5.10
2022-11-20T18:19:42.716Z,5.10
2022-11-20T18:22:24.136Z,5.10
2022-11-20T18:24:52.189Z,5.10
2022-11-20T18:27:24.781Z,5.10
2022-11-20T18:29:52.990Z,5.10
2022-11-20T18:32:22.745Z,5.20
2022-11-20T18:34:54.159Z,5.20
2022-11-20T18:37:22.704Z,5.10
2022-11-20T18:39:51.170Z,5.10
2022-11-20T18:42:37.693Z,5.10
2022-11-20T18:45:06.866Z,5.10
2022-11-20T18:47:38.603Z,5.20
2022-11-20T18:50:09.178Z,5.10
2022-11-20T18:52:44.999Z,5.20
2022-11-20T18:55:13.846Z,5.20
2022-11-20T18:57:42.075Z,5.20
2022-11-20T19:00:11.524Z,5.20
2022-11-20T19:02:42.785Z,5.30
2022-11-20T19:05:12.452Z,5.30
2022-11-20T19:07:41.563Z,5.30
2022-11-20T19:10:13.747Z,5.30
2022-11-20T19:12:42.454Z,5.30
2022-11-20T19:15:12.348Z,5.30
2022-11-20T19:17:40.527Z,5.30
2022-11-20T19:20:08.920Z,5.20
2022-11-20T19:22:36.872Z,5.20
2022-11-20T19:25:05.344Z,5.10
2022-11-20T19:27:33.378Z,5.10
2022-11-20T19:30:03.846Z,5.10
2022-11-20T19:32:33.301Z,5.10
2022-11-20T19:35:01.839Z,5.00
2022-11-20T19:37:30.045Z,5.00
2022-11-20T19:40:02.232Z,5.00
2022-11-20T19:42:31.297Z,5.00
2022-11-20T19:44:59.276Z,4.90
2022-11-20T19:47:45.979Z,4.90
2022-11-20T19:50:16.624Z,4.80
2022-11-20T19:52:44.605Z,4.90
2022-11-20T19:55:12.749Z,4.90
2022-11-20T19:57:40.650Z,4.90
2022-11-20T20:00:09.909Z,4.80
2022-11-20T20:02:37.814Z,4.90
2022-11-20T20:05:08.737Z,4.80
2022-11-20T20:07:36.897Z,4.80
2022-11-20T20:10:05.013Z,4.90
2022-11-20T20:12:32.657Z,4.80
2022-11-20T20:15:00.778Z,4.90
2022-11-20T20:17:28.804Z,4.90
2022-11-20T20:19:57.085Z,4.80
2022-11-20T20:22:24.953Z,4.90
2022-11-20T20:24:52.815Z,4.90
2022-11-20T20:27:20.392Z,4.90
2022-11-20T20:29:48.227Z,4.80
2022-11-20T20:32:16.083Z,4.80
2022-11-20T20:34:47.532Z,4.70
2022-11-20T20:37:15.586Z,4.70
2022-11-20T20:39:43.126Z,4.70
2022-11-20T20:42:10.409Z,4.70
2022-11-20T20:44:56.792Z,4.70
2022-11-20T20:47:24.829Z,4.60
2022-11-20T20:49:56.235Z,4.60
2022-11-20T20:52:27.894Z,4.60
2022-11-20T20:54:56.029Z,4.50
2022-11-20T20:57:25.176Z,4.40
2022-11-20T20:59:56.006Z,4.40
2022-11-20T21:02:24.209Z,4.40
2022-11-20T21:04:52.967Z,4.40
2022-11-20T21:07:20.518Z,4.40
2022-11-20T21:09:47.978Z,4.40
2022-11-20T21:12:15.344Z,4.40
2022-11-20T21:14:42.861Z,4.30
2022-11-20T21:17:15.138Z,4.20
2022-11-20T21:19:43.401Z,4.30
2022-11-20T21:22:10.701Z,4.20
2022-11-20T21:24:37.782Z,4.20
2022-11-20T21:27:07.326Z,4.20
2022-11-20T21:29:34.558Z,4.20
2022-11-20T21:32:02.102Z,4.10
2022-11-20T21:34:29.420Z,4.10
2022-11-20T21:36:56.369Z,4.00
2022-11-20T21:39:23.424Z,3.90
2022-11-20T21:41:50.729Z,3.90
2022-11-20T21:44:33.333Z,3.80
2022-11-20T21:47:00.828Z,3.80
2022-11-20T21:49:27.982Z,3.80
2022-11-20T21:51:55.147Z,3.70
2022-11-20T21:54:22.535Z,3.70
2022-11-20T21:56:50.022Z,3.70
2022-11-20T21:59:17.020Z,3.70
2022-11-20T22:01:44.075Z,3.80
2022-11-20T22:04:15.494Z,3.80
2022-11-20T22:06:42.543Z,4.00
2022-11-20T22:09:10.670Z,4.00
2022-11-20T22:11:37.603Z,4.20
2022-11-20T22:14:23.551Z,4.20
2022-11-20T22:16:52.600Z,4.30
2022-11-20T22:19:21.463Z,4.30
2022-11-20T22:21:49.438Z,4.30
2022-11-20T22:24:18.495Z,4.30
2022-11-20T22:26:45.500Z,4.40
2022-11-20T22:29:20.972Z,4.40
2022-11-20T22:31:48.419Z,4.40
2022-11-20T22:34:15.541Z,4.40
2022-11-20T22:36:42.741Z,4.40
2022-11-20T22:39:09.718Z,4.40
2022-11-20T22:41:36.759Z,4.30
2022-11-20T22:44:06.397Z,4.30
2022-11-20T22:46:35.934Z,4.20
2022-11-20T22:49:05.967Z,4.20
2022-11-20T22:51:36.013Z,4.20
2022-11-20T22:54:03.768Z,4.10
2022-11-20T22:56:31.264Z,4.10
2022-11-20T22:58:58.226Z,4.10
2022-11-20T23:01:34.499Z,4.10
2022-11-20T23:04:04.529Z,4.20
2022-11-20T23:06:35.827Z,4.20
2022-11-20T23:09:04.424Z,4.20
2022-11-20T23:11:32.273Z,4.20
2022-11-20T23:14:01.600Z,4.20
2022-11-20T23:16:30.537Z,4.20
2022-11-20T23:18:59.529Z,4.20
2022-11-20T23:21:27.057Z,4.20
2022-11-20T23:23:56.715Z,4.20
2022-11-20T23:26:27.238Z,4.10
2022-11-20T23:28:56.353Z,4.10
2022-11-20T23:31:24.242Z,4.10
2022-11-20T23:33:51.439Z,4.00
2022-11-20T23:36:18.560Z,4.00
2022-11-20T23:38:45.509Z,4.00
2022-11-20T23:41:13.675Z,4.00
2022-11-20T23:43:40.873Z,3.90
2022-11-20T23:46:10.434Z,3.90
2022-11-20T23:48:39.928Z,3.90
2022-11-20T23:51:08.079Z,3.90
2022-11-20T23:53:35.299Z,3.90
2022-11-20T23:56:04.215Z,3.80
2022-11-20T23:58:33.614Z,3.80
